< < Back
Terminal Aerodrome Forecast


Current Version              Previous Versions:   1  2  3  4  5  6  7  8  9  

Terminal Aerodrome Forecast

117
FTUS42 KJAX 251120
TAFSSI
TAF
KSSI 251120Z 2512/2612 28006KT P6SM SKC
     FM251800 20008KT P6SM SKC
     FM260700 24009KT P6SM BKN035=

Latest METAR

545
SAUS70 KWBC 251200 RRD
MTRSSI
METAR KSSI 251153Z AUTO 28006KT 10SM CLR 04/01 A3005 RMK AO2 SLP176
T00440006 10067 20044 53012


USA.gov is the U.S. government's official web portal to all federal, state and local government web resources and services.